createdAt,value
2017-11-23T00:01:23.749Z,111.17
2017-11-23T00:03:51.353Z,104.57
2017-11-23T00:06:18.971Z,74.03
2017-11-23T00:08:46.559Z,99.07
2017-11-23T00:11:14.555Z,87.23
2017-11-23T00:13:42.257Z,73.20
2017-11-23T00:16:22.567Z,58.93
2017-11-23T00:18:50.156Z,50.73
2017-11-23T00:21:17.742Z,46.07
2017-11-23T00:23:52.323Z,41.87
2017-11-23T00:26:19.917Z,80.37
2017-11-23T00:28:47.518Z,64.50
2017-11-23T00:31:15.139Z,49.00
2017-11-23T00:33:42.712Z,42.67
2017-11-23T00:36:10.733Z,44.40
2017-11-23T00:38:38.319Z,34.00
2017-11-23T00:41:06.240Z,28.40
2017-11-23T00:43:33.861Z,17.60
2017-11-23T00:46:01.447Z,24.70
2017-11-23T00:48:29.324Z,20.23
2017-11-23T00:50:56.938Z,24.17
2017-11-23T00:53:24.551Z,22.10
2017-11-23T00:55:52.180Z,15.60
2017-11-23T00:58:22.714Z,11.23
2017-11-23T01:00:50.303Z,15.83
2017-11-23T01:03:28.392Z,22.80
2017-11-23T01:05:55.989Z,13.60
2017-11-23T01:08:27.382Z,8.70
2017-11-23T01:10:55.035Z,10.70
2017-11-23T01:13:24.312Z,6.30
2017-11-23T01:15:51.951Z,7.80
2017-11-23T01:18:30.088Z,8.83
2017-11-23T01:20:57.697Z,8.87
2017-11-23T01:23:25.624Z,7.63
2017-11-23T01:25:53.265Z,7.33
2017-11-23T01:28:20.883Z,9.03
2017-11-23T01:30:48.471Z,9.00
2017-11-23T01:33:17.205Z,10.30
2017-11-23T01:35:44.815Z,9.00
2017-11-23T01:38:12.410Z,12.63
2017-11-23T01:40:40.206Z,11.30
2017-11-23T01:43:07.836Z,12.87
2017-11-23T01:45:35.409Z,13.27
2017-11-23T01:48:02.992Z,9.17
2017-11-23T01:50:30.623Z,11.17
2017-11-23T01:52:58.192Z,8.63
2017-11-23T01:55:25.810Z,11.40
2017-11-23T01:57:53.792Z,12.33
2017-11-23T02:00:21.351Z,15.00
2017-11-23T02:02:48.935Z,9.47
2017-11-23T02:05:16.568Z,10.23
2017-11-23T02:07:45.167Z,9.50
2017-11-23T02:10:12.774Z,17.20
2017-11-23T02:12:40.388Z,18.30
2017-11-23T02:15:11.228Z,13.00
2017-11-23T02:17:38.853Z,16.13
2017-11-23T02:20:07.082Z,16.77
2017-11-23T02:22:34.676Z,12.90
2017-11-23T02:25:02.275Z,13.03
2017-11-23T02:27:29.854Z,11.83
2017-11-23T02:29:57.455Z,12.90
2017-11-23T02:32:38.002Z,13.10
2017-11-23T02:35:06.024Z,11.70
2017-11-23T02:37:40.035Z,10.33
2017-11-23T02:40:11.056Z,11.23
2017-11-23T02:42:38.621Z,8.13
2017-11-23T02:45:06.203Z,8.83
2017-11-23T02:47:40.388Z,9.30
2017-11-23T02:50:14.023Z,10.10
2017-11-23T02:52:41.639Z,10.20
2017-11-23T02:55:09.239Z,9.90
2017-11-23T02:57:39.846Z,8.17
2017-11-23T03:00:10.818Z,8.53
2017-11-23T03:02:39.021Z,9.80
2017-11-23T03:07:39.872Z,10.23
2017-11-23T03:10:07.617Z,10.60
2017-11-23T03:15:13.710Z,11.03
2017-11-23T03:17:41.259Z,8.77
2017-11-23T03:20:08.870Z,10.87
2017-11-23T03:22:36.495Z,15.40
2017-11-23T03:25:04.128Z,10.53
2017-11-23T03:27:31.724Z,17.43
2017-11-23T03:29:59.568Z,18.10
2017-11-23T03:32:27.139Z,12.70
2017-11-23T03:34:54.774Z,22.03
2017-11-23T03:37:22.358Z,18.80
2017-11-23T03:39:49.921Z,13.63
2017-11-23T03:42:17.562Z,16.63
2017-11-23T03:44:45.135Z,27.00
2017-11-23T03:47:13.099Z,31.90
2017-11-23T03:49:40.690Z,50.23
2017-11-23T03:52:08.265Z,49.93
2017-11-23T03:54:35.902Z,32.73
2017-11-23T03:57:03.454Z,37.40
2017-11-23T03:59:31.018Z,25.93
2017-11-23T04:01:58.578Z,38.20
2017-11-23T04:04:26.129Z,26.77
2017-11-23T04:06:53.749Z,47.47
2017-11-23T04:09:21.319Z,27.47
2017-11-23T04:11:48.874Z,22.27
2017-11-23T04:14:16.464Z,25.23
2017-11-23T04:16:44.059Z,29.13
2017-11-23T04:19:12.048Z,14.47
2017-11-23T04:21:39.609Z,18.00
2017-11-23T04:24:07.167Z,21.10
2017-11-23T04:26:34.725Z,17.17
2017-11-23T04:29:02.286Z,18.27
2017-11-23T04:31:29.898Z,15.90
2017-11-23T04:33:57.450Z,13.33
2017-11-23T04:36:25.407Z,15.70
2017-11-23T04:38:52.964Z,17.83
2017-11-23T04:41:20.521Z,16.27
2017-11-23T04:43:48.118Z,21.13
2017-11-23T04:46:15.696Z,16.53
2017-11-23T04:48:43.262Z,16.70
2017-11-23T04:51:10.818Z,22.37
2017-11-23T04:53:38.433Z,21.67
2017-11-23T04:56:06.075Z,20.13
2017-11-23T04:58:33.733Z,13.80
2017-11-23T05:01:01.323Z,15.97
2017-11-23T05:03:28.920Z,14.77
2017-11-23T05:05:56.516Z,17.40
2017-11-23T05:08:24.080Z,12.90
2017-11-23T05:10:52.113Z,17.27
2017-11-23T05:13:19.731Z,10.50
2017-11-23T05:15:47.327Z,11.37
2017-11-23T05:18:14.907Z,11.20
2017-11-23T05:20:42.492Z,13.00
2017-11-23T05:23:10.075Z,16.73
2017-11-23T05:25:37.634Z,13.27
2017-11-23T05:28:05.241Z,13.50
2017-11-23T05:30:32.854Z,12.63
2017-11-23T05:33:00.431Z,15.80
2017-11-23T05:35:28.017Z,12.93
2017-11-23T05:37:55.671Z,11.90
2017-11-23T05:40:23.298Z,13.13
2017-11-23T05:42:50.869Z,20.40
2017-11-23T05:45:18.545Z,15.40
2017-11-23T05:47:46.132Z,13.80
2017-11-23T05:50:13.717Z,13.77
2017-11-23T05:52:41.357Z,21.40
2017-11-23T05:55:08.919Z,12.77
2017-11-23T05:57:36.520Z,11.00
2017-11-23T06:00:04.129Z,12.03
2017-11-23T06:02:31.720Z,11.97
2017-11-23T06:04:59.726Z,10.90
2017-11-23T06:07:27.279Z,14.20
2017-11-23T06:09:54.844Z,13.23
2017-11-23T06:12:22.421Z,12.10
2017-11-23T06:14:50.029Z,21.70
2017-11-23T06:17:17.681Z,15.60
2017-11-23T06:19:45.297Z,10.60
2017-11-23T06:22:12.880Z,12.87
2017-11-23T06:24:40.502Z,9.67
2017-11-23T06:27:08.068Z,9.73
2017-11-23T06:29:36.118Z,9.93
2017-11-23T06:32:03.720Z,7.67
2017-11-23T06:34:31.292Z,8.47
2017-11-23T06:36:58.888Z,12.67
2017-11-23T06:39:26.464Z,10.20
2017-11-23T06:41:54.417Z,9.07
2017-11-23T06:44:22.011Z,11.20
2017-11-23T06:46:49.606Z,11.50
2017-11-23T06:49:17.213Z,12.10
2017-11-23T06:51:44.869Z,18.20
2017-11-23T06:54:12.499Z,22.60
2017-11-23T06:56:40.042Z,9.57
2017-11-23T06:59:08.062Z,8.70
2017-11-23T07:01:35.619Z,8.77
2017-11-23T07:04:03.204Z,6.97
2017-11-23T07:06:30.797Z,8.40
2017-11-23T07:08:58.381Z,9.53
2017-11-23T07:11:26.288Z,11.13
2017-11-23T07:13:53.900Z,6.93
2017-11-23T07:16:21.498Z,9.23
2017-11-23T07:18:49.070Z,10.90
2017-11-23T07:21:16.632Z,9.27
2017-11-23T07:23:44.277Z,6.37
2017-11-23T07:26:11.871Z,17.67
2017-11-23T07:28:39.463Z,11.13
2017-11-23T07:31:07.054Z,21.00
2017-11-23T07:33:34.661Z,11.77
2017-11-23T07:36:02.222Z,13.80
2017-11-23T07:38:29.785Z,9.17
2017-11-23T07:40:57.377Z,8.03
2017-11-23T07:43:24.984Z,10.03
2017-11-23T07:45:52.565Z,8.23
2017-11-23T07:48:20.134Z,10.40
2017-11-23T07:50:47.733Z,10.90
2017-11-23T07:53:15.354Z,8.90
2017-11-23T07:55:42.915Z,10.00
2017-11-23T07:58:10.536Z,15.03
2017-11-23T08:00:38.131Z,24.60
2017-11-23T08:03:05.744Z,33.53
2017-11-23T08:05:33.314Z,27.00
2017-11-23T08:08:00.894Z,25.90
2017-11-23T08:10:28.532Z,23.53
2017-11-23T08:12:56.129Z,28.33
2017-11-23T08:15:23.840Z,25.07
2017-11-23T08:17:51.419Z,23.40
2017-11-23T08:20:19.030Z,19.90
2017-11-23T08:22:46.626Z,16.83
2017-11-23T08:25:14.191Z,19.33
2017-11-23T08:27:41.803Z,18.07
2017-11-23T08:30:09.379Z,17.10
2017-11-23T08:32:36.985Z,18.53
2017-11-23T08:35:04.557Z,14.53
2017-11-23T08:37:32.124Z,13.30
2017-11-23T08:39:59.714Z,14.67
2017-11-23T08:42:27.287Z,10.53
2017-11-23T08:44:54.912Z,9.90
2017-11-23T08:47:22.484Z,9.30
2017-11-23T08:49:50.060Z,12.93
2017-11-23T08:52:20.584Z,13.13
2017-11-23T08:54:53.502Z,10.90
2017-11-23T08:57:21.089Z,14.17
2017-11-23T08:59:48.641Z,9.73
2017-11-23T09:02:16.247Z,8.93
2017-11-23T09:04:43.803Z,9.40
2017-11-23T09:07:11.394Z,11.00
2017-11-23T09:09:38.972Z,9.20
2017-11-23T09:12:09.151Z,8.20
2017-11-23T09:14:36.839Z,16.17
2017-11-23T09:17:04.413Z,9.60
2017-11-23T09:19:32.015Z,9.17
2017-11-23T09:21:59.558Z,6.87
2017-11-23T09:24:27.110Z,11.20
2017-11-23T09:26:54.766Z,8.30
2017-11-23T09:29:22.383Z,7.73
2017-11-23T09:31:50.293Z,7.60
2017-11-23T09:34:17.854Z,7.50
2017-11-23T09:36:45.402Z,12.27
2017-11-23T09:39:12.973Z,6.60
2017-11-23T09:41:40.737Z,8.43
2017-11-23T09:44:08.737Z,10.20
2017-11-23T09:46:36.326Z,8.30
2017-11-23T09:49:03.894Z,8.13
2017-11-23T09:51:31.530Z,6.93
2017-11-23T09:53:59.159Z,10.13
2017-11-23T09:56:26.784Z,8.00
2017-11-23T09:58:54.360Z,6.60
2017-11-23T10:01:21.938Z,8.20
2017-11-23T10:03:49.508Z,10.70
2017-11-23T10:06:17.142Z,9.60
2017-11-23T10:08:44.719Z,11.43
2017-11-23T10:11:12.293Z,14.30
2017-11-23T10:13:39.972Z,12.60
2017-11-23T10:16:07.555Z,8.50
2017-11-23T10:18:35.143Z,13.57
2017-11-23T10:21:02.705Z,8.17
2017-11-23T10:23:30.318Z,8.17
2017-11-23T10:25:57.935Z,10.97
2017-11-23T10:28:25.540Z,9.27
2017-11-23T10:30:53.126Z,11.17
2017-11-23T10:33:20.736Z,7.53
2017-11-23T10:35:48.362Z,8.33
2017-11-23T10:38:15.940Z,10.43
2017-11-23T10:40:43.510Z,12.10
2017-11-23T10:43:11.144Z,12.53
2017-11-23T10:45:38.709Z,8.00
2017-11-23T10:48:06.299Z,10.63
2017-11-23T10:50:33.878Z,12.90
2017-11-23T10:53:01.439Z,12.10
2017-11-23T10:55:29.023Z,8.23
2017-11-23T10:57:56.687Z,8.23
2017-11-23T11:00:24.274Z,10.10
2017-11-23T11:02:51.847Z,12.73
2017-11-23T11:05:19.420Z,7.13
2017-11-23T11:07:47.005Z,7.77
2017-11-23T11:10:14.570Z,7.73
2017-11-23T11:12:42.136Z,11.53
2017-11-23T11:15:09.728Z,9.03
2017-11-23T11:17:37.356Z,8.23
2017-11-23T11:20:04.941Z,10.03
2017-11-23T11:22:32.514Z,13.20
2017-11-23T11:25:00.097Z,11.80
2017-11-23T11:27:27.655Z,8.20
2017-11-23T11:29:55.264Z,8.37
2017-11-23T11:32:22.841Z,10.60
2017-11-23T11:34:50.402Z,7.80
2017-11-23T11:37:18.054Z,9.23
2017-11-23T11:39:45.639Z,7.03
2017-11-23T11:42:13.254Z,9.30
2017-11-23T11:44:40.826Z,9.73
2017-11-23T11:47:08.437Z,9.13
2017-11-23T11:49:35.994Z,9.87
2017-11-23T11:52:03.580Z,15.43
2017-11-23T11:54:31.498Z,15.23
2017-11-23T11:56:59.082Z,14.70
2017-11-23T11:59:26.688Z,11.70
2017-11-23T12:01:54.277Z,12.80
2017-11-23T12:04:21.880Z,10.67
2017-11-23T12:06:49.455Z,7.83
2017-11-23T12:09:17.017Z,15.47
2017-11-23T12:11:44.610Z,22.50
2017-11-23T12:14:24.043Z,11.97
2017-11-23T12:17:03.222Z,25.23
2017-11-23T12:19:42.680Z,14.53
2017-11-23T12:22:22.090Z,12.13
2017-11-23T12:25:01.540Z,16.60
2017-11-23T12:27:40.932Z,14.77
2017-11-23T12:30:12.460Z,13.83
2017-11-23T12:32:40.047Z,7.50
2017-11-23T12:35:07.611Z,12.27
2017-11-23T12:37:35.229Z,12.63
2017-11-23T12:40:02.793Z,7.80
2017-11-23T12:42:30.343Z,12.40
2017-11-23T12:44:58.097Z,9.90
2017-11-23T12:47:25.671Z,11.67
2017-11-23T12:49:53.549Z,15.27
2017-11-23T12:52:21.125Z,11.67
2017-11-23T12:54:48.701Z,16.40
2017-11-23T12:57:16.307Z,8.23
2017-11-23T12:59:43.874Z,9.53
2017-11-23T13:02:11.479Z,12.57
2017-11-23T13:04:39.072Z,11.57
2017-11-23T13:07:06.657Z,9.13
2017-11-23T13:09:34.252Z,12.63
2017-11-23T13:12:01.817Z,9.73
2017-11-23T13:14:29.413Z,8.97
2017-11-23T13:16:57.061Z,7.90
2017-11-23T13:19:24.703Z,16.93
2017-11-23T13:21:52.326Z,9.83
2017-11-23T13:24:19.927Z,7.90
2017-11-23T13:26:47.555Z,15.70
2017-11-23T13:29:15.168Z,11.23
2017-11-23T13:31:42.781Z,10.23
2017-11-23T13:34:10.413Z,11.37
2017-11-23T13:36:38.036Z,12.13
2017-11-23T13:39:05.632Z,8.33
2017-11-23T13:41:33.217Z,11.20
2017-11-23T13:44:00.851Z,13.03
2017-11-23T13:46:28.454Z,13.30
2017-11-23T13:48:56.484Z,12.53
2017-11-23T13:51:24.054Z,8.60
2017-11-23T13:53:51.641Z,31.03
2017-11-23T13:56:19.354Z,23.03
2017-11-23T13:58:46.931Z,11.63
2017-11-23T14:01:14.544Z,15.80
2017-11-23T14:03:42.141Z,13.30
2017-11-23T14:06:09.720Z,19.27
2017-11-23T14:08:37.306Z,23.47
2017-11-23T14:11:04.873Z,40.10
2017-11-23T14:13:32.531Z,34.80
2017-11-23T14:16:00.113Z,44.70
2017-11-23T14:18:28.098Z,22.20
2017-11-23T14:20:55.703Z,23.73
2017-11-23T14:23:23.424Z,19.87
2017-11-23T14:25:51.043Z,32.50
2017-11-23T14:28:18.621Z,46.57
2017-11-23T14:30:46.404Z,31.27
2017-11-23T14:33:14.419Z,25.77
2017-11-23T14:35:42.125Z,26.70
2017-11-23T14:38:09.729Z,20.07
2017-11-23T14:40:37.316Z,30.57
2017-11-23T14:43:04.928Z,37.57
2017-11-23T14:45:32.543Z,35.33
2017-11-23T14:48:00.139Z,25.93
2017-11-23T14:50:27.718Z,32.03
2017-11-23T14:52:55.339Z,38.73
2017-11-23T14:55:22.944Z,42.00
2017-11-23T14:57:51.038Z,45.50
2017-11-23T15:00:18.657Z,68.73
2017-11-23T15:02:46.248Z,68.13
2017-11-23T15:05:13.867Z,87.07
2017-11-23T15:07:41.475Z,100.00
2017-11-23T15:10:09.118Z,74.87
2017-11-23T15:12:36.694Z,81.87
2017-11-23T15:15:04.255Z,76.67
2017-11-23T15:17:31.839Z,81.83
2017-11-23T15:19:59.430Z,71.10
2017-11-23T15:22:27.084Z,55.60
2017-11-23T15:24:54.637Z,52.43
2017-11-23T15:27:22.274Z,56.30
2017-11-23T15:29:49.852Z,50.17
2017-11-23T15:32:17.445Z,29.23
2017-11-23T15:34:45.034Z,28.83
2017-11-23T15:37:12.628Z,46.23
2017-11-23T15:39:40.249Z,39.00
2017-11-23T15:42:07.815Z,34.23
2017-11-23T15:44:35.462Z,33.57
2017-11-23T15:47:03.060Z,34.10
2017-11-23T15:49:30.654Z,26.67
2017-11-23T15:51:58.257Z,26.57
2017-11-23T15:54:25.862Z,34.20
2017-11-23T15:56:53.509Z,51.37
2017-11-23T15:59:21.112Z,33.67
2017-11-23T16:01:48.742Z,41.47
2017-11-23T16:04:16.346Z,33.73
2017-11-23T16:06:43.948Z,36.50
2017-11-23T16:09:11.568Z,46.43
2017-11-23T16:11:39.132Z,45.00
2017-11-23T16:14:06.758Z,36.83
2017-11-23T16:16:34.335Z,13.90
2017-11-23T16:19:01.938Z,15.00
2017-11-23T16:21:29.539Z,19.60
2017-11-23T16:23:57.115Z,26.40
2017-11-23T16:26:25.136Z,20.70
2017-11-23T16:28:52.749Z,20.10
2017-11-23T16:31:20.308Z,13.43
2017-11-23T16:33:47.895Z,13.67
2017-11-23T16:36:15.983Z,12.97
2017-11-23T16:42:06.121Z,19.53
2017-11-23T16:47:45.613Z,32.50
2017-11-23T16:50:24.150Z,17.87
2017-11-23T16:56:00.629Z,18.80
2017-11-23T16:58:33.952Z,20.07
2017-11-23T17:01:07.515Z,27.77
2017-11-23T17:03:41.120Z,25.03
2017-11-23T17:06:25.877Z,18.77
2017-11-23T17:12:04.615Z,33.20
2017-11-23T17:14:38.094Z,30.00
2017-11-23T17:17:08.011Z,34.87
2017-11-23T17:19:35.985Z,28.20
2017-11-23T17:22:03.849Z,26.87
2017-11-23T17:24:32.288Z,32.17
2017-11-23T17:27:00.284Z,34.97
2017-11-23T17:29:28.181Z,37.80
2017-11-23T17:31:56.327Z,38.33
2017-11-23T17:34:24.332Z,37.53
2017-11-23T17:36:54.055Z,44.07
2017-11-23T17:39:22.077Z,45.93
2017-11-23T17:41:51.519Z,45.07
2017-11-23T17:44:21.220Z,37.40
2017-11-23T17:46:50.800Z,37.67
2017-11-23T17:49:18.824Z,34.60
2017-11-23T17:51:47.002Z,26.27
2017-11-23T17:54:14.989Z,38.33
2017-11-23T17:56:44.969Z,31.00
2017-11-23T17:59:15.990Z,27.63
2017-11-23T18:01:43.977Z,38.50
2017-11-23T18:04:11.867Z,30.80
2017-11-23T18:06:40.243Z,26.97
2017-11-23T18:09:08.110Z,22.00
2017-11-23T18:11:36.184Z,32.73
2017-11-23T18:14:04.258Z,22.93
2017-11-23T18:16:33.407Z,33.90
2017-11-23T18:19:02.315Z,25.83
2017-11-23T18:21:30.287Z,22.70
2017-11-23T18:23:59.013Z,38.30
2017-11-23T18:26:30.786Z,26.43
2017-11-23T18:28:58.854Z,35.50
2017-11-23T18:31:27.122Z,241.03
2017-11-23T18:33:55.514Z,100.50
2017-11-23T18:36:25.281Z,64.27
2017-11-23T18:38:54.231Z,45.57
2017-11-23T18:41:24.864Z,44.43
2017-11-23T18:43:52.940Z,48.93
2017-11-23T18:46:22.335Z,55.90
2017-11-23T18:48:53.977Z,62.50
2017-11-23T18:51:23.005Z,65.90
2017-11-23T18:53:52.098Z,61.53
2017-11-23T18:56:20.282Z,60.70
2017-11-23T18:58:49.271Z,63.87
2017-11-23T19:01:18.516Z,64.30
2017-11-23T19:03:54.124Z,82.50
2017-11-23T19:06:22.302Z,86.23
2017-11-23T19:08:51.515Z,98.23
2017-11-23T19:11:19.738Z,86.80
2017-11-23T19:13:47.867Z,70.30
2017-11-23T19:16:16.090Z,49.60
2017-11-23T19:18:44.910Z,30.90
2017-11-23T19:21:13.193Z,38.67
2017-11-23T19:23:43.015Z,39.13
2017-11-23T19:26:11.195Z,72.53
2017-11-23T19:28:39.472Z,55.07
2017-11-23T19:31:07.818Z,53.30
2017-11-23T19:33:36.068Z,60.47
2017-11-23T19:36:04.108Z,66.33
2017-11-23T19:38:32.740Z,70.23
2017-11-23T19:41:01.756Z,70.97
2017-11-23T19:43:30.770Z,63.07
2017-11-23T19:46:00.686Z,61.13
2017-11-23T19:48:30.867Z,42.17
2017-11-23T19:50:59.070Z,30.53
2017-11-23T19:53:29.226Z,33.90
2017-11-23T19:55:57.404Z,30.83
2017-11-23T19:58:26.690Z,28.17
2017-11-23T20:00:54.892Z,29.97
2017-11-23T20:03:23.779Z,23.13
2017-11-23T20:05:52.060Z,23.30
2017-11-23T20:08:20.396Z,24.80
2017-11-23T20:10:49.829Z,18.57
2017-11-23T20:13:22.358Z,21.40
2017-11-23T20:15:50.649Z,19.43
2017-11-23T20:18:22.445Z,21.93
2017-11-23T20:20:51.545Z,32.37
2017-11-23T20:23:22.210Z,26.00
2017-11-23T20:25:51.332Z,24.87
2017-11-23T20:28:26.124Z,26.20
2017-11-23T20:30:54.254Z,29.27
2017-11-23T20:33:22.373Z,38.57
2017-11-23T20:35:51.254Z,29.10
2017-11-23T20:38:21.080Z,22.43
2017-11-23T20:40:51.815Z,24.70
2017-11-23T20:43:25.009Z,21.50
2017-11-23T20:45:53.184Z,27.70
2017-11-23T20:48:22.281Z,32.80
2017-11-23T20:50:50.328Z,27.47
2017-11-23T20:53:18.519Z,21.57
2017-11-23T20:55:52.545Z,19.17
2017-11-23T20:58:20.679Z,25.93
2017-11-23T21:00:50.997Z,18.47
2017-11-23T21:03:22.101Z,22.80
2017-11-23T21:05:51.611Z,17.63
2017-11-23T21:08:19.894Z,21.27
2017-11-23T21:10:49.607Z,22.50
2017-11-23T21:13:17.763Z,15.53
2017-11-23T21:15:53.414Z,18.37
2017-11-23T21:18:21.519Z,17.00
2017-11-23T21:20:49.571Z,17.87
2017-11-23T21:23:17.855Z,20.77
2017-11-23T21:25:45.958Z,20.30
2017-11-23T21:28:14.006Z,20.00
2017-11-23T21:30:42.069Z,17.90
2017-11-23T21:33:10.164Z,19.87
2017-11-23T21:35:39.852Z,19.00
2017-11-23T21:38:14.512Z,27.87
2017-11-23T21:40:42.553Z,22.13
2017-11-23T21:43:10.525Z,21.90
2017-11-23T21:45:38.507Z,21.00
2017-11-23T21:48:06.416Z,21.07
2017-11-23T21:50:34.425Z,19.40
2017-11-23T21:53:02.716Z,29.23
2017-11-23T21:55:30.691Z,22.00
2017-11-23T21:57:58.667Z,17.73
2017-11-23T22:00:26.568Z,16.90
2017-11-23T22:02:56.038Z,18.30
2017-11-23T22:05:24.017Z,18.30
2017-11-23T22:07:51.931Z,15.03
2017-11-23T22:10:19.967Z,14.47
2017-11-23T22:12:47.914Z,14.07
2017-11-23T22:15:15.918Z,14.10
2017-11-23T22:17:44.884Z,14.40
2017-11-23T22:20:19.336Z,18.13
2017-11-23T22:22:47.412Z,16.43
2017-11-23T22:25:15.340Z,17.83
2017-11-23T22:27:43.307Z,13.10
2017-11-23T22:30:12.037Z,33.57
2017-11-23T22:32:40.113Z,15.20
2017-11-23T22:35:10.595Z,15.07
2017-11-23T22:37:38.820Z,14.90
2017-11-23T22:40:07.408Z,13.90
2017-11-23T22:42:35.474Z,16.43
2017-11-23T22:45:03.348Z,12.33
2017-11-23T22:47:31.212Z,12.40
2017-11-23T22:49:59.178Z,10.27
2017-11-23T22:52:27.069Z,16.77
2017-11-23T22:54:54.929Z,16.47
2017-11-23T22:57:29.998Z,14.07
2017-11-23T22:59:57.898Z,13.20
2017-11-23T23:02:25.808Z,13.43
2017-11-23T23:04:55.687Z,14.43
2017-11-23T23:07:24.422Z,13.73
2017-11-23T23:09:54.897Z,13.43
2017-11-23T23:12:22.917Z,18.23
2017-11-23T23:14:52.131Z,15.00
2017-11-23T23:17:20.090Z,14.30
2017-11-23T23:19:48.061Z,12.53
2017-11-23T23:22:16.047Z,15.13
2017-11-23T23:24:45.633Z,14.63
2017-11-23T23:27:22.211Z,12.47
2017-11-23T23:29:50.187Z,18.83
2017-11-23T23:32:18.265Z,15.77
2017-11-23T23:34:54.014Z,13.23
2017-11-23T23:37:22.245Z,10.00
2017-11-23T23:39:50.160Z,15.47
2017-11-23T23:42:22.804Z,11.63
2017-11-23T23:44:53.468Z,9.93
2017-11-23T23:47:21.547Z,9.87
2017-11-23T23:49:49.560Z,12.60
2017-11-23T23:52:17.490Z,10.27
2017-11-23T23:54:45.470Z,10.43
2017-11-23T23:57:13.343Z,16.03
2017-11-23T23:59:45.968Z,10.00
